createdAt,value
2022-11-06T00:01:14.123Z,85615.13
2022-11-06T00:03:41.643Z,85583.72
2022-11-06T00:06:29.009Z,85615.59
2022-11-06T00:08:56.369Z,85577.28
2022-11-06T00:11:23.234Z,85581.44
2022-11-06T00:13:52.471Z,85605.19
2022-11-06T00:16:20.183Z,85588.13
2022-11-06T00:18:47.516Z,85581.09
2022-11-06T00:21:24.628Z,85596.56
2022-11-06T00:23:52.403Z,85597.81
2022-11-06T00:26:26.099Z,85587.28
2022-11-06T00:28:53.927Z,85584.63
2022-11-06T00:31:23.263Z,85597.00
2022-11-06T00:33:51.090Z,85581.41
2022-11-06T00:36:20.527Z,85587.97
2022-11-06T00:38:48.148Z,85589.22
2022-11-06T00:41:17.087Z,85606.66
2022-11-06T00:43:49.650Z,85574.75
2022-11-06T00:46:17.160Z,85609.66
2022-11-06T00:48:44.188Z,85583.50
2022-11-06T00:51:12.257Z,85600.59
2022-11-06T00:53:40.206Z,85582.53
2022-11-06T00:56:18.312Z,85576.38
2022-11-06T00:58:46.852Z,85585.69
2022-11-06T01:01:18.844Z,85582.91
2022-11-06T01:03:51.443Z,85570.56
2022-11-06T01:06:23.576Z,85585.59
2022-11-06T01:08:51.685Z,85587.19
2022-11-06T01:11:22.541Z,85584.38
2022-11-06T01:13:51.832Z,85585.69
2022-11-06T01:16:19.668Z,85587.06
2022-11-06T01:18:46.956Z,85551.81
2022-11-06T01:21:20.029Z,85589.50
2022-11-06T01:23:47.773Z,85572.47
2022-11-06T01:26:21.180Z,85575.13
2022-11-06T01:28:56.978Z,85576.66
2022-11-06T01:31:26.531Z,85548.44
2022-11-06T01:33:55.388Z,85580.69
2022-11-06T01:36:23.095Z,85569.66
2022-11-06T01:38:52.504Z,85529.66
2022-11-06T01:41:22.126Z,85557.53
2022-11-06T01:43:54.392Z,85549.28
2022-11-06T01:46:23.935Z,85552.97
2022-11-06T01:48:58.930Z,85543.97
2022-11-06T01:51:28.404Z,85538.72
2022-11-06T01:53:55.904Z,85544.13
2022-11-06T01:56:23.597Z,85531.06
2022-11-06T01:58:53.760Z,85548.84
2022-11-06T02:01:20.953Z,85550.28
2022-11-06T02:03:57.727Z,85524.25
2022-11-06T02:06:25.217Z,85541.84
2022-11-06T02:08:52.135Z,85552.16
2022-11-06T02:11:19.313Z,85536.78
2022-11-06T02:14:20.658Z,85537.41
2022-11-06T02:17:15.405Z,85546.91
2022-11-06T02:20:35.780Z,85539.97
2022-11-06T02:23:07.191Z,85518.47
2022-11-06T02:26:01.611Z,85540.72
2022-11-06T02:28:35.553Z,85548.84
2022-11-06T02:31:10.388Z,85511.50
2022-11-06T02:33:44.734Z,85521.16
2022-11-06T02:36:24.293Z,85521.16
2022-11-06T02:38:56.635Z,85532.72
2022-11-06T02:41:32.029Z,85548.50
2022-11-06T02:44:00.434Z,85522.66
2022-11-06T02:46:30.885Z,85544.56
2022-11-06T02:49:04.590Z,85550.22
2022-11-06T02:51:36.437Z,85561.91
2022-11-06T02:54:05.910Z,85550.13
2022-11-06T02:56:39.923Z,85521.56
2022-11-06T02:59:20.727Z,85551.94
2022-11-06T03:02:10.746Z,85564.44
2022-11-06T03:04:39.481Z,85544.06
2022-11-06T03:07:12.362Z,85532.91
2022-11-06T03:09:39.437Z,85550.66
2022-11-06T03:12:25.403Z,85532.44
2022-11-06T03:15:33.726Z,85552.22
2022-11-06T03:18:15.890Z,85545.88
2022-11-06T03:20:52.093Z,85546.41
2022-11-06T03:23:25.616Z,85510.97
2022-11-06T03:26:01.199Z,85532.91
2022-11-06T03:28:39.156Z,85547.69
2022-11-06T03:31:11.721Z,85539.13
2022-11-06T03:33:46.238Z,85521.81
2022-11-06T03:36:19.794Z,85560.25
2022-11-06T03:38:54.185Z,85514.31
2022-11-06T03:41:28.619Z,85507.56
2022-11-06T03:43:59.425Z,85542.22
2022-11-06T03:46:28.332Z,85545.06
2022-11-06T03:49:05.776Z,85508.91
2022-11-06T03:51:45.090Z,85537.47
2022-11-06T03:54:17.520Z,85521.81
2022-11-06T03:56:50.965Z,85526.88
2022-11-06T03:59:23.545Z,85541.31
2022-11-06T04:01:55.577Z,85530.22
2022-11-06T04:04:27.953Z,85542.44
2022-11-06T04:07:03.182Z,85510.78
2022-11-06T04:09:52.751Z,85462.88
2022-11-06T04:12:41.781Z,85536.00
2022-11-06T04:15:12.490Z,85542.16
2022-11-06T04:17:41.030Z,85554.56
2022-11-06T04:20:33.203Z,85540.66
2022-11-06T04:23:19.379Z,85543.59
2022-11-06T04:26:24.247Z,85545.47
2022-11-06T04:29:00.190Z,85547.09
2022-11-06T04:31:42.662Z,85551.25
2022-11-06T04:34:31.189Z,85551.88
2022-11-06T04:37:22.686Z,85548.44
2022-11-06T04:40:30.692Z,85552.72
2022-11-06T04:43:14.847Z,85556.03
2022-11-06T04:45:47.678Z,85531.53
2022-11-06T04:48:16.275Z,85552.88
2022-11-06T04:50:49.720Z,85549.31
2022-11-06T04:53:19.035Z,85547.28
2022-11-06T04:55:52.311Z,85510.28
2022-11-06T04:58:19.261Z,85515.06
2022-11-06T05:00:48.852Z,85518.47
2022-11-06T05:03:16.997Z,85556.72
2022-11-06T05:05:44.005Z,85523.22
2022-11-06T05:08:16.971Z,85553.91
2022-11-06T05:10:44.977Z,85555.75
2022-11-06T05:13:12.720Z,85557.13
2022-11-06T05:15:39.798Z,85533.03
2022-11-06T05:18:07.306Z,85554.22
2022-11-06T05:20:35.025Z,85520.03
2022-11-06T05:23:01.917Z,85532.81
2022-11-06T05:25:37.765Z,85548.69
2022-11-06T05:28:07.252Z,85531.06
2022-11-06T05:30:36.073Z,85559.03
2022-11-06T05:33:04.033Z,85542.59
2022-11-06T05:35:30.945Z,85549.81
2022-11-06T05:38:02.245Z,85571.75
2022-11-06T05:40:29.652Z,85575.63
2022-11-06T05:42:56.573Z,85588.56
2022-11-06T05:45:23.504Z,85603.00
2022-11-06T05:47:50.362Z,85581.31
2022-11-06T05:50:17.381Z,85580.53
2022-11-06T05:52:44.463Z,85605.44
2022-11-06T05:55:14.710Z,85600.59
2022-11-06T05:57:42.931Z,85586.22
2022-11-06T06:00:11.952Z,85572.56
2022-11-06T06:02:43.173Z,85610.78
2022-11-06T06:05:10.374Z,85614.25
2022-11-06T06:07:37.334Z,85608.25
2022-11-06T06:10:04.972Z,85600.09
2022-11-06T06:12:31.839Z,85616.94
2022-11-06T06:14:58.767Z,85604.66
2022-11-06T06:17:25.907Z,85579.97
2022-11-06T06:19:53.000Z,85553.31
2022-11-06T06:22:20.028Z,85612.97
2022-11-06T06:24:47.176Z,85603.84
2022-11-06T06:27:14.158Z,85640.34
2022-11-06T06:29:41.083Z,85627.81
2022-11-06T06:32:08.070Z,85615.75
2022-11-06T06:34:34.963Z,85651.28
2022-11-06T06:37:01.850Z,85631.53
2022-11-06T06:39:28.758Z,85664.69
2022-11-06T06:41:55.644Z,85665.38
2022-11-06T06:44:22.700Z,85649.25
2022-11-06T06:46:49.588Z,85669.38
2022-11-06T06:49:16.484Z,85649.00
2022-11-06T06:51:43.353Z,85676.25
2022-11-06T06:54:10.358Z,85668.72
2022-11-06T06:56:37.234Z,85695.47
2022-11-06T06:59:04.313Z,85691.13
2022-11-06T07:01:31.347Z,85713.28
2022-11-06T07:04:02.952Z,85691.53
2022-11-06T07:06:31.341Z,85705.53
2022-11-06T07:08:58.336Z,85709.06
2022-11-06T07:11:25.464Z,85719.41
2022-11-06T07:13:52.470Z,85736.13
2022-11-06T07:16:21.332Z,85730.63
2022-11-06T07:18:48.235Z,85736.34
2022-11-06T07:21:15.139Z,85710.28
2022-11-06T07:23:42.141Z,85723.22
2022-11-06T07:26:09.092Z,85701.22
2022-11-06T07:28:36.137Z,85747.81
2022-11-06T07:31:05.092Z,85745.13
2022-11-06T07:33:32.765Z,85732.75
2022-11-06T07:36:05.168Z,85740.91
2022-11-06T07:38:35.111Z,85748.34
2022-11-06T07:41:07.294Z,85705.09
2022-11-06T07:43:34.917Z,85731.22
2022-11-06T07:46:03.643Z,85735.88
2022-11-06T07:48:31.064Z,85709.22
2022-11-06T07:50:58.552Z,85713.25
2022-11-06T07:53:25.584Z,85742.16
2022-11-06T07:55:54.695Z,85754.13
2022-11-06T07:58:22.517Z,85750.88
2022-11-06T08:00:54.552Z,85765.34
2022-11-06T08:03:22.103Z,85722.81
2022-11-06T08:05:49.612Z,85740.78
2022-11-06T08:08:17.031Z,85729.97
2022-11-06T08:10:44.233Z,85755.19
2022-11-06T08:13:11.648Z,85751.03
2022-11-06T08:15:39.111Z,85730.53
2022-11-06T08:18:07.030Z,85740.72
2022-11-06T08:20:37.822Z,85736.63
2022-11-06T08:23:06.724Z,85755.13
2022-11-06T08:25:35.010Z,85755.88
2022-11-06T08:28:02.683Z,85751.22
2022-11-06T08:30:30.827Z,85706.47
2022-11-06T08:33:07.244Z,85749.66
2022-11-06T08:35:35.084Z,85730.44
2022-11-06T08:38:02.536Z,85704.38
2022-11-06T08:40:31.336Z,85759.78
2022-11-06T08:43:03.364Z,85726.13
2022-11-06T08:45:37.550Z,85767.44
2022-11-06T08:48:05.097Z,85770.16
2022-11-06T08:50:32.640Z,85779.16
2022-11-06T08:53:04.376Z,85768.09
2022-11-06T08:55:31.687Z,85735.22
2022-11-06T08:57:58.605Z,85744.69
2022-11-06T09:00:25.693Z,85726.25
2022-11-06T09:02:59.161Z,85692.47
2022-11-06T09:05:26.148Z,85741.19
2022-11-06T09:07:53.065Z,85748.09
2022-11-06T09:10:20.247Z,85709.84
2022-11-06T09:12:47.207Z,85734.34
2022-11-06T09:15:14.220Z,85744.19
2022-11-06T09:17:49.046Z,85720.72
2022-11-06T09:20:19.224Z,85733.63
2022-11-06T09:22:47.402Z,85737.69
2022-11-06T09:25:15.224Z,85728.69
2022-11-06T09:27:46.984Z,85716.44
2022-11-06T09:30:16.524Z,85747.91
2022-11-06T09:32:52.342Z,85745.69
2022-11-06T09:35:20.629Z,85737.34
2022-11-06T09:37:47.889Z,85729.06
2022-11-06T09:40:36.943Z,85733.75
2022-11-06T09:44:04.084Z,85744.81
2022-11-06T09:46:31.658Z,85725.44
2022-11-06T09:49:22.581Z,85739.25
2022-11-06T09:51:57.539Z,85742.00
2022-11-06T09:54:24.577Z,85737.69
2022-11-06T09:56:59.788Z,85725.44
2022-11-06T09:59:27.069Z,85743.75
2022-11-06T10:02:01.707Z,85733.47
2022-11-06T10:04:36.831Z,85735.31
2022-11-06T10:07:03.810Z,85703.59
2022-11-06T10:09:31.079Z,85692.47
2022-11-06T10:12:23.196Z,85698.59
2022-11-06T10:15:25.510Z,85739.13
2022-11-06T10:18:16.896Z,85722.31
2022-11-06T10:20:51.735Z,85726.34
2022-11-06T10:23:29.960Z,85731.34
2022-11-06T10:26:09.097Z,85738.31
2022-11-06T10:28:48.216Z,85731.84
2022-11-06T10:31:33.477Z,85716.63
2022-11-06T10:34:02.670Z,85732.41
2022-11-06T10:37:17.501Z,85724.78
2022-11-06T10:39:47.016Z,85704.19
2022-11-06T10:42:19.388Z,85699.84
2022-11-06T10:45:02.473Z,85704.63
2022-11-06T10:48:10.048Z,85702.19
2022-11-06T10:50:57.910Z,85688.31
2022-11-06T10:53:31.107Z,85681.47
2022-11-06T10:56:21.385Z,85696.78
2022-11-06T10:58:48.717Z,85693.91
2022-11-06T11:01:16.023Z,85686.47
2022-11-06T11:03:45.028Z,85683.25
2022-11-06T11:06:12.094Z,85680.53
2022-11-06T11:08:52.649Z,85710.34
2022-11-06T11:11:25.480Z,85711.56
2022-11-06T11:14:12.294Z,85707.19
2022-11-06T11:16:42.828Z,85716.69
2022-11-06T11:19:38.671Z,85711.63
2022-11-06T11:22:17.460Z,85686.50
2022-11-06T11:25:05.538Z,85696.06
2022-11-06T11:27:37.852Z,85700.94
2022-11-06T11:30:06.035Z,85733.13
2022-11-06T11:32:33.634Z,85730.22
2022-11-06T11:35:02.328Z,85729.69
2022-11-06T11:37:34.071Z,85698.53
2022-11-06T11:40:23.512Z,85719.53
2022-11-06T11:42:50.627Z,85730.34
2022-11-06T11:45:19.292Z,85742.81
2022-11-06T11:47:51.718Z,85738.69
2022-11-06T11:50:26.618Z,85729.94
2022-11-06T11:53:09.857Z,85707.44
2022-11-06T11:55:44.725Z,85700.50
2022-11-06T11:58:30.485Z,85740.03
2022-11-06T12:01:03.338Z,85675.22
2022-11-06T12:03:44.672Z,85745.91
2022-11-06T12:06:19.649Z,85751.44
2022-11-06T12:08:49.102Z,85752.13
2022-11-06T12:11:22.460Z,85747.94
2022-11-06T12:14:18.307Z,85749.00
2022-11-06T12:16:48.989Z,85755.94
2022-11-06T12:19:19.471Z,85740.25
2022-11-06T12:21:51.773Z,85753.34
2022-11-06T12:24:23.614Z,85745.03
2022-11-06T12:26:59.262Z,85742.25
2022-11-06T12:29:38.791Z,85740.19
2022-11-06T12:32:14.751Z,85740.72
2022-11-06T12:35:19.075Z,85753.34
2022-11-06T12:37:54.803Z,85737.53
2022-11-06T12:40:25.351Z,85746.28
2022-11-06T12:43:02.569Z,85746.25
2022-11-06T12:45:52.412Z,85721.56
2022-11-06T12:48:25.177Z,85749.00
2022-11-06T12:51:08.111Z,85737.81
2022-11-06T12:54:00.340Z,85715.97
2022-11-06T12:57:05.673Z,85744.81
2022-11-06T12:59:44.532Z,85739.09
2022-11-06T13:02:30.711Z,85738.66
2022-11-06T13:05:16.644Z,85728.44
2022-11-06T13:08:02.522Z,85751.28
2022-11-06T13:10:32.894Z,85742.88
2022-11-06T13:13:34.531Z,85724.41
2022-11-06T13:16:13.507Z,85744.13
2022-11-06T13:18:53.004Z,85744.56
2022-11-06T13:22:00.760Z,85750.28
2022-11-06T13:25:04.040Z,85752.84
2022-11-06T13:27:42.671Z,85754.34
2022-11-06T13:30:22.317Z,85750.34
2022-11-06T13:33:19.861Z,85747.97
2022-11-06T13:35:47.114Z,85745.25
2022-11-06T13:38:23.610Z,85750.81
2022-11-06T13:40:58.120Z,85758.50
2022-11-06T13:43:41.747Z,85754.38
2022-11-06T13:46:38.547Z,85764.28
2022-11-06T13:49:22.628Z,85697.34
2022-11-06T13:51:56.677Z,85750.13
2022-11-06T13:54:35.628Z,85771.88
2022-11-06T13:57:05.685Z,85767.66
2022-11-06T13:59:58.913Z,85773.13
2022-11-06T14:02:32.034Z,85768.28
2022-11-06T14:05:28.225Z,85769.63
2022-11-06T14:07:56.454Z,85770.50
2022-11-06T14:10:35.901Z,85762.97
2022-11-06T14:13:05.140Z,85734.13
2022-11-06T14:15:42.071Z,85732.59
2022-11-06T14:18:14.974Z,85779.31
2022-11-06T14:20:42.142Z,85773.94
2022-11-06T14:23:30.482Z,85783.44
2022-11-06T14:26:09.474Z,85774.75
2022-11-06T14:28:42.018Z,85789.28
2022-11-06T14:31:14.034Z,85784.34
2022-11-06T14:33:44.810Z,85774.03
2022-11-06T14:36:23.787Z,85772.56
2022-11-06T14:38:51.344Z,85767.84
2022-11-06T14:41:36.591Z,85772.56
2022-11-06T14:44:13.402Z,85772.56
2022-11-06T14:46:49.139Z,85766.34
2022-11-06T14:49:34.216Z,85767.56
2022-11-06T14:52:13.273Z,85749.22
2022-11-06T14:54:49.710Z,85762.84
2022-11-06T14:57:33.470Z,85756.34
2022-11-06T15:00:01.309Z,85763.22
2022-11-06T15:02:31.120Z,85777.09
2022-11-06T15:05:07.420Z,85763.13
2022-11-06T15:10:42.526Z,85771.44
2022-11-06T15:13:18.619Z,85771.28
2022-11-06T15:15:48.434Z,85735.84
2022-11-06T15:18:23.054Z,85773.41
2022-11-06T15:20:53.495Z,85785.03
2022-11-06T15:23:25.470Z,85775.84
2022-11-06T15:26:05.869Z,85787.25
2022-11-06T15:28:41.036Z,85760.63
2022-11-06T15:31:17.437Z,85760.91
2022-11-06T15:33:56.019Z,85809.59
2022-11-06T15:36:23.923Z,85822.84
2022-11-06T15:38:51.047Z,85800.63
2022-11-06T15:41:26.943Z,85848.88
2022-11-06T15:43:56.035Z,85811.06
2022-11-06T15:46:28.406Z,85818.06
2022-11-06T15:49:14.263Z,85808.91
2022-11-06T15:51:41.288Z,85820.16
2022-11-06T15:54:14.397Z,85803.66
2022-11-06T15:56:42.503Z,85825.53
2022-11-06T15:59:13.763Z,85842.16
2022-11-06T16:01:42.172Z,85835.38
2022-11-06T16:04:17.261Z,85831.47
2022-11-06T16:06:45.031Z,85843.34
2022-11-06T16:09:20.376Z,85834.97
2022-11-06T16:11:50.576Z,85839.13
2022-11-06T16:14:18.538Z,85832.16
2022-11-06T16:16:53.161Z,85841.84
2022-11-06T16:19:33.988Z,85839.75
2022-11-06T16:22:07.983Z,85851.34
2022-11-06T16:24:43.926Z,85847.97
2022-11-06T16:27:11.828Z,85806.16
2022-11-06T16:29:39.729Z,85814.38
2022-11-06T16:32:14.300Z,85825.94
2022-11-06T16:34:45.768Z,85855.56
2022-11-06T16:37:18.416Z,85855.47
2022-11-06T16:39:50.955Z,85847.19
2022-11-06T16:42:20.769Z,85857.63
2022-11-06T16:44:59.273Z,85855.56
2022-11-06T16:47:26.197Z,85854.19
2022-11-06T16:49:58.280Z,85856.28
2022-11-06T16:52:39.413Z,85856.97
2022-11-06T16:55:16.664Z,85861.22
2022-11-06T16:57:51.917Z,85834.38
2022-11-06T17:00:21.554Z,85867.28
2022-11-06T17:03:13.845Z,85842.13
2022-11-06T17:05:52.995Z,85838.66
2022-11-06T17:08:51.514Z,85848.97
2022-11-06T17:11:21.976Z,85866.75
2022-11-06T17:13:50.628Z,85837.97
2022-11-06T17:16:23.215Z,85851.69
2022-11-06T17:18:50.967Z,85876.47
2022-11-06T17:21:22.524Z,85869.56
2022-11-06T17:23:50.395Z,85856.59
2022-11-06T17:26:30.463Z,85847.63
2022-11-06T17:28:58.918Z,85850.97
2022-11-06T17:31:27.040Z,85874.13
2022-11-06T17:33:54.482Z,85879.09
2022-11-06T17:36:26.387Z,85868.19
2022-11-06T17:38:57.682Z,85882.63
2022-11-06T17:41:32.336Z,85869.00
2022-11-06T17:44:01.364Z,85875.13
2022-11-06T17:46:33.381Z,85887.47
2022-11-06T17:49:02.276Z,85891.66
2022-11-06T17:51:53.889Z,85885.44
2022-11-06T17:54:23.291Z,85891.66
2022-11-06T17:56:51.598Z,85879.41
2022-11-06T17:59:18.633Z,85873.84
2022-11-06T18:01:47.813Z,85895.72
2022-11-06T18:04:14.929Z,85867.00
2022-11-06T18:06:44.954Z,85872.47
2022-11-06T18:09:12.015Z,85897.78
2022-11-06T18:11:38.893Z,85888.09
2022-11-06T18:14:05.803Z,85868.31
2022-11-06T18:16:39.709Z,85894.41
2022-11-06T18:19:11.535Z,85872.50
2022-11-06T18:21:38.444Z,85899.94
2022-11-06T18:24:05.895Z,85885.69
2022-11-06T18:26:32.942Z,85889.16
2022-11-06T18:29:00.257Z,85897.34
2022-11-06T18:31:27.099Z,85885.06
2022-11-06T18:33:53.963Z,85911.16
2022-11-06T18:36:21.017Z,85901.44
2022-11-06T18:38:47.896Z,85841.25
2022-11-06T18:41:17.259Z,85918.03
2022-11-06T18:43:44.209Z,85915.31
2022-11-06T18:46:16.721Z,85890.72
2022-11-06T18:48:44.115Z,85888.84
2022-11-06T18:51:27.835Z,85908.13
2022-11-06T18:54:04.782Z,85908.69
2022-11-06T18:56:32.530Z,85904.56
2022-11-06T18:58:59.773Z,85912.38
2022-11-06T19:01:26.871Z,85903.56
2022-11-06T19:03:54.020Z,85922.09
2022-11-06T19:06:21.611Z,85933.78
2022-11-06T19:08:49.400Z,85940.00
2022-11-06T19:11:17.797Z,85891.28
2022-11-06T19:13:47.943Z,85915.38
2022-11-06T19:16:16.585Z,85924.34
2022-11-06T19:18:43.583Z,85942.88
2022-11-06T19:21:11.753Z,85946.34
2022-11-06T19:23:43.574Z,85947.72
2022-11-06T19:26:30.709Z,85920.28
2022-11-06T19:29:00.247Z,85909.38
2022-11-06T19:31:30.763Z,85935.44
2022-11-06T19:33:59.175Z,85947.84
2022-11-06T19:36:26.465Z,85902.69
2022-11-06T19:38:54.241Z,85943.69
2022-11-06T19:41:21.590Z,85943.13
2022-11-06T19:43:48.658Z,85950.66
2022-11-06T19:46:24.112Z,85950.66
2022-11-06T19:48:51.887Z,85975.50
2022-11-06T19:51:19.082Z,85970.03
2022-11-06T19:53:46.016Z,85946.84
2022-11-06T19:56:16.611Z,85974.88
2022-11-06T19:58:43.921Z,85974.97
2022-11-06T20:01:15.909Z,85978.53
2022-11-06T20:03:43.008Z,85901.66
2022-11-06T20:06:11.053Z,85964.06
2022-11-06T20:08:38.968Z,85986.81
2022-11-06T20:11:09.248Z,85924.34
2022-11-06T20:13:39.290Z,85944.28
2022-11-06T20:16:08.891Z,85982.09
2022-11-06T20:18:36.142Z,85980.06
2022-11-06T20:21:06.081Z,85969.09
2022-11-06T20:23:34.132Z,85980.06
2022-11-06T20:26:01.495Z,85954.63
2022-11-06T20:28:28.857Z,85960.13
2022-11-06T20:30:56.587Z,85985.81
2022-11-06T20:33:23.891Z,85953.50
2022-11-06T20:35:50.868Z,85925.94
2022-11-06T20:38:17.813Z,85988.50
2022-11-06T20:40:45.372Z,85947.97
2022-11-06T20:43:12.623Z,85989.91
2022-11-06T20:45:40.068Z,85989.28
2022-11-06T20:48:09.344Z,85966.59
2022-11-06T20:50:36.421Z,85966.53
2022-11-06T20:53:03.697Z,85937.72
2022-11-06T20:55:30.651Z,85988.63
2022-11-06T20:57:57.636Z,85948.09
2022-11-06T21:00:24.661Z,85986.53
2022-11-06T21:02:53.553Z,86001.81
2022-11-06T21:05:23.253Z,85986.69
2022-11-06T21:07:50.188Z,85970.88
2022-11-06T21:10:17.163Z,86002.53
2022-11-06T21:12:44.112Z,85987.38
2022-11-06T21:15:11.103Z,85988.69
2022-11-06T21:17:42.584Z,85946.31
2022-11-06T21:20:11.000Z,85981.97
2022-11-06T21:22:37.944Z,85976.44
2022-11-06T21:25:05.195Z,86008.13
2022-11-06T21:27:32.097Z,86012.28
2022-11-06T21:29:59.007Z,85986.72
2022-11-06T21:32:25.998Z,85966.81
2022-11-06T21:34:52.903Z,85994.31
2022-11-06T21:37:19.833Z,86011.59
2022-11-06T21:39:46.980Z,85995.78
2022-11-06T21:42:13.984Z,85986.19
2022-11-06T21:44:40.891Z,85976.59
2022-11-06T21:47:07.822Z,86011.69
2022-11-06T21:49:34.743Z,86004.06
2022-11-06T21:52:26.491Z,86012.28
2022-11-06T21:55:14.367Z,86008.22
2022-11-06T21:57:41.097Z,86016.56
2022-11-06T22:00:11.763Z,85997.31
2022-11-06T22:02:42.160Z,86008.38
2022-11-06T22:05:09.379Z,85987.75
2022-11-06T22:07:36.250Z,86018.06
2022-11-06T22:10:04.022Z,86026.31
2022-11-06T22:12:30.873Z,86025.00
2022-11-06T22:14:57.780Z,85976.88
2022-11-06T22:17:24.639Z,85983.81
2022-11-06T22:19:51.473Z,86025.06
2022-11-06T22:22:18.380Z,85997.53
2022-11-06T22:24:46.321Z,86003.03
2022-11-06T22:27:13.319Z,86003.09
2022-11-06T22:29:40.211Z,86028.50
2022-11-06T22:32:07.155Z,86004.38
2022-11-06T22:34:34.237Z,86003.00
2022-11-06T22:37:01.515Z,86007.16
2022-11-06T22:39:28.715Z,86025.69
2022-11-06T22:41:55.584Z,86015.31
2022-11-06T22:44:22.831Z,85991.28
2022-11-06T22:46:50.034Z,86002.28
2022-11-06T22:49:17.073Z,85986.38
2022-11-06T22:51:44.034Z,86017.31
2022-11-06T22:54:10.975Z,86005.63
2022-11-06T22:56:38.138Z,86020.06
2022-11-06T22:59:09.888Z,86009.72
2022-11-06T23:01:42.400Z,86013.81
2022-11-06T23:04:15.649Z,86012.47
2022-11-06T23:06:44.509Z,86019.31
2022-11-06T23:09:11.645Z,85997.97
2022-11-06T23:11:38.586Z,86024.03
2022-11-06T23:14:08.821Z,86006.94
2022-11-06T23:16:54.319Z,86016.56
2022-11-06T23:19:21.271Z,86026.84
2022-11-06T23:21:48.221Z,86030.34
2022-11-06T23:24:15.681Z,86005.56
2022-11-06T23:26:44.477Z,86031.72
2022-11-06T23:29:11.638Z,86042.09
2022-11-06T23:31:38.685Z,86037.94
2022-11-06T23:34:05.639Z,86015.13
2022-11-06T23:36:32.527Z,85999.41
2022-11-06T23:38:59.567Z,86033.06
2022-11-06T23:41:46.049Z,86001.41
2022-11-06T23:44:33.404Z,86054.44
2022-11-06T23:47:01.056Z,86023.47
2022-11-06T23:49:28.309Z,86028.28
2022-11-06T23:51:55.670Z,86042.66
2022-11-06T23:54:22.637Z,86048.13
2022-11-06T23:56:49.642Z,86024.81
2022-11-06T23:59:16.896Z,86008.25
